Flight Track Log - Related Links

Times and Time Zones

All times are in EDT time to prevent confusion due to time zone crossing. See the LXJ537 flight status page for this flight to view local times or setup timezone preferences in your user account.

Time Position Orientation Groundspeed Altitude Reporting Facility
EDT Latitude Longitude Course Direction KTS MPH feet Rate Location/Type
Tue 03:45:36 PM 47.5072 -122.2181 North 145 167 1,200  Level Seattle Center
Tue 03:46:20 PM 47.5325 -122.2122 North 158 182 3,900 4,685 Climbing Seattle Center
Tue 03:46:49 PM 47.5644 -122.2061 North 183 211 6,900 4,820 Climbing Seattle Center
Tue 03:47:21 PM 47.5958 -122.1922 17° North 216 249 8,800 2,164 Climbing Seattle Center
Tue 03:47:50 PM 47.6050 -122.1475 73° East 263 303 9,100 295 Climbing Seattle Center
Tue 03:48:22 PM 47.5789 -122.1031 131° Southeast 275 316 9,100 1,355 Level Seattle Center
Tue 03:49:23 PM 47.5081 -122.0472 152° Southeast 294 338 11,200 2,803 Climbing Seattle Center
Tue 03:50:24 PM 47.4208 -122.0822 195° South 349 402 14,800 2,459 Climbing Seattle Center
Tue 03:51:25 PM 47.3364 -122.1733 216° Southwest 383 441 16,200 2,557 Climbing Seattle Center
Tue 03:52:26 PM 47.2178 -122.1614 176° South 437 503 20,000 3,393 Climbing Seattle Center
Tue 03:53:27 PM 47.1006 -122.1167 165° South 442 509 23,100 2,754 Climbing Seattle Center
Tue 03:54:28 PM 46.9731 -122.0675 165° South 476 548 25,600 2,361 Climbing Seattle Center
Tue 03:55:29 PM 46.8378 -122.0178 166° South 504 580 27,900 2,508 Climbing Seattle Center
Tue 03:56:30 PM 46.6986 -121.9647 165° South 521 600 30,700 2,557 Climbing Seattle Center
Tue 03:57:31 PM 46.5583 -121.9142 166° South 525 604 33,100 2,579 Climbing Seattle Center
Tue 03:58:31 PM 46.3892 -121.8508 166° South 529 609 35,900 2,380 Climbing Seattle Center
Tue 03:59:32 PM 46.2492 -121.7992 166° South 526 605 37,900 1,623 Climbing Seattle Center
Tue 04:00:33 PM 46.1253 -121.7536 166° South 523 602 39,200 1,377 Climbing Seattle Center
Tue 04:01:34 PM 45.9828 -121.7028 166° South 527 606 40,700 885 Climbing Seattle Center
Tue 04:02:35 PM 45.8181 -121.6417 166° South 515 593 41,000 148 Climbing Seattle Center
Tue 04:03:36 PM 45.6836 -121.5936 166° South 506 582 41,000  Level Seattle Center
Tue 04:04:37 PM 45.5506 -121.5442 165° South 498 573 41,000  Level Seattle Center
Tue 04:05:38 PM 45.4164 -121.4972 166° South 500 575 41,000  Level Seattle Center
Tue 04:06:39 PM 45.2819 -121.4492 166° South 501 577 41,000  Level Seattle Center
Tue 04:07:40 PM 45.1483 -121.4006 166° South 498 573 41,000  Level Seattle Center
Tue 04:08:41 PM 45.0153 -121.3539 166° South 496 571 41,000  Level Seattle Center
Tue 04:09:41 PM 44.8825 -121.3075 166° South 495 570 41,000  Level Seattle Center
Tue 04:10:42 PM 44.7478 -121.2606 166° South 499 574 41,000  Level Seattle Center
Tue 04:11:43 PM 44.6139 -121.2147 166° South 500 575 41,000  Level Seattle Center
Tue 04:12:44 PM 44.4775 -121.1678 166° South 502 578 41,000  Level Seattle Center
Tue 04:13:45 PM 44.3175 -121.1122 166° South 500 575 41,000  Level Seattle Center
Tue 04:14:46 PM 44.1803 -121.0639 166° South 508 585 41,000  Level Seattle Center
Tue 04:15:47 PM 44.0425 -121.0200 167° South 509 586 41,000  Level Seattle Center
Tue 04:16:48 PM 43.9064 -120.9733 166° South 508 585 41,000  Level Seattle Center
Tue 04:17:49 PM 43.7783 -120.9319 167° South 510 587 41,000  Level Seattle Center
Tue 04:18:50 PM 43.6336 -120.8811 166° South 506 582 41,000  Level Seattle Center
Tue 04:19:51 PM 43.4981 -120.8386 167° South 509 586 41,000  Level Seattle Center
Tue 04:20:51 PM 43.3614 -120.7964 167° South 505 581 41,000  Level Seattle Center
Tue 04:21:52 PM 43.2258 -120.7503 166° South 501 577 41,000  Level Seattle Center
Tue 04:22:53 PM 43.0919 -120.7047 166° South 497 572 41,000  Level Seattle Center
Tue 04:23:54 PM 42.9572 -120.6622 167° South 496 571 41,000  Level Seattle Center
Tue 04:24:55 PM 42.8211 -120.6172 166° South 499 574 41,000  Level Seattle Center
Tue 04:25:56 PM 42.6853 -120.5733 167° South 500 575 41,000  Level Seattle Center
Tue 04:26:57 PM 42.5186 -120.5189 166° South 512 589 41,000  Level Seattle Center
Tue 04:27:58 PM 42.3803 -120.4750 167° South 510 587 41,000  Level Seattle Center
Tue 04:28:59 PM 42.2408 -120.4333 168° South 511 588 41,000  Level Seattle Center
Tue 04:30:00 PM 42.1033 -120.3922 167° South 506 582 41,000  Level Seattle Center
Tue 04:31:01 PM 41.9658 -120.3522 168° South 505 581 41,000  Level Seattle Center
Tue 04:32:02 PM 41.8272 -120.3100 167° South 507 583 41,000  Level Seattle Center
Tue 04:33:03 PM 41.6903 -120.2694 168° South 504 580 41,000 -148 Level Seattle Center
Tue 04:34:04 PM 41.5525 -120.2311 168° South 504 580 40,700 -1,475 Descending Seattle Center
Tue 04:35:05 PM 41.4142 -120.1881 167° South 507 583 38,000 -2,656 Descending Seattle Center
Tue 04:36:06 PM 41.2764 -120.1481 168° South 505 581 35,300 -2,607 Descending Seattle Center
Tue 04:37:07 PM 41.1406 -120.1089 168° South 499 574 32,700 -2,508 Descending Seattle Center
Tue 04:38:08 PM 41.0008 -120.0675 167° South 510 587 30,200 -1,672 Descending Seattle Center
Tue 04:39:09 PM 40.8608 -120.0292 168° South 511 588 29,300 -1,475 Descending Seattle Center
Tue 04:40:10 PM 40.7261 -119.9911 168° South 499 574 27,200 -2,289 Descending Seattle Center
Tue 04:40:25 PM 40.6725 -119.9758 168° South 495 570 26,400 -2,132 Descending Oakland Center
Tue 04:41:26 PM 40.5456 -119.9389 168° South 485 558 24,500 -1,918 Descending Oakland Center
Tue 04:42:27 PM 40.4153 -119.9028 168° South 479 551 22,500 -1,951 Descending Oakland Center
Tue 04:43:29 PM 40.2872 -119.8689 169° South 473 544 20,500 -1,951 Descending Oakland Center
Tue 04:44:30 PM 40.1603 -119.8306 167° South 470 541 18,500 -1,918 Descending Oakland Center
Tue 04:45:31 PM 40.0419 -119.7986 168° South 447 514 16,600 -1,463 Descending Oakland Center
Tue 04:46:33 PM 39.9294 -119.7669 168° South 430 495 15,500 -1,610 Descending Oakland Center
Tue 04:47:34 PM 39.8003 -119.7314 168° South 403 464 13,300 -1,820 Descending Oakland Center
Tue 04:48:35 PM 39.6922 -119.7031 169° South 399 459 11,800 -1,463 Descending Oakland Center
Tue 04:49:37 PM 39.5997 -119.6756 167° South 364 419 10,300 -1,451 Descending Oakland Center
Tue 04:50:06 PM 39.5667 -119.6667 168° South 297 342 9,600 -1,663 Descending Northern Cal TRACON
Tue 04:51:00 PM 39.5000 -119.6667 180° South 263 303 8,000 -1,500 Descending Northern Cal TRACON
Tue 04:52:06 PM 39.4333 -119.7000 201° Southwest 229 264 6,600 -1,200 Descending Northern Cal TRACON
Tue 04:53:00 PM 39.4500 -119.7500 293° West 155 178 5,600 -1,111 Descending Northern Cal TRACON
Tue 04:54:00 PM 39.4833 -119.7667 237° Southwest  Level FlightAware Approximate
Tue 05:01:00 PM 39.4991 -119.7681 237° Southwest  Level Estimated
Tue 05:02:00 PM 39.4991 -119.7681 237° Southwest  Level Estimated

Login

Don't have an account? Register now (free) for customized features, flight alerts, and more!